Terminal Aerodrome Forecast
Issued by NWS Wilmington, NC

Home | Current Version | Previous Version | Text Only | Print | Product List | Glossary On
Versions: 1 2 3 4 5 6 7 8 9 10 11 12 13 14 15 16 17 18 19
000
FTUS42 KILM 241720
TAFILM
TAF
KILM 241720Z 2418/2518 03011KT P6SM BKN060
     FM250000 VRB03KT P6SM SCT020 BKN200
     FM251400 28006KT P6SM FEW050=

USA.gov is the U.S. government's official web portal to all federal, state and local government web resources and services.